createdAt,value
2022-10-05T00:00:56.150Z,11.30
2022-10-05T00:03:37.031Z,11.20
2022-10-05T00:06:05.220Z,11.30
2022-10-05T00:08:35.234Z,11.30
2022-10-05T00:11:02.349Z,11.30
2022-10-05T00:13:30.990Z,11.30
2022-10-05T00:16:21.079Z,11.20
2022-10-05T00:18:53.678Z,11.20
2022-10-05T00:21:29.166Z,11.20
2022-10-05T00:23:58.243Z,11.20
2022-10-05T00:26:32.044Z,11.20
2022-10-05T00:28:58.980Z,11.20
2022-10-05T00:31:32.941Z,11.30
2022-10-05T00:33:59.930Z,11.30
2022-10-05T00:36:26.853Z,11.30
2022-10-05T00:38:55.359Z,11.30
2022-10-05T00:41:22.207Z,11.30
2022-10-05T00:44:46.859Z,11.30
2022-10-05T00:47:54.201Z,11.40
2022-10-05T00:51:18.005Z,11.40
2022-10-05T00:54:45.660Z,11.40
2022-10-05T00:57:51.205Z,11.40
2022-10-05T01:00:21.958Z,11.40
2022-10-05T01:03:15.261Z,11.20
2022-10-05T01:06:08.473Z,11.30
2022-10-05T01:09:36.226Z,11.20
2022-10-05T01:12:52.805Z,11.20
2022-10-05T01:15:37.127Z,11.20
2022-10-05T01:18:33.238Z,11.20
2022-10-05T01:21:18.692Z,11.20
2022-10-05T01:24:31.992Z,11.10
2022-10-05T01:27:29.373Z,11.10
2022-10-05T01:30:19.751Z,11.00
2022-10-05T01:33:07.624Z,11.10
2022-10-05T01:35:48.340Z,11.10
2022-10-05T01:38:28.145Z,11.10
2022-10-05T01:41:06.854Z,11.10
2022-10-05T01:43:56.282Z,11.20
2022-10-05T01:46:49.138Z,11.20
2022-10-05T01:49:55.068Z,11.20
2022-10-05T01:52:54.268Z,11.10
2022-10-05T01:55:56.615Z,11.10
2022-10-05T01:58:43.233Z,11.20
2022-10-05T02:01:38.006Z,11.20
2022-10-05T02:04:35.647Z,11.20
2022-10-05T02:07:15.498Z,11.20
2022-10-05T02:10:00.727Z,11.20
2022-10-05T02:12:35.159Z,11.20
2022-10-05T02:15:13.761Z,11.20
2022-10-05T02:17:52.059Z,11.20
2022-10-05T02:20:31.928Z,11.20
2022-10-05T02:23:07.425Z,11.20
2022-10-05T02:25:40.588Z,11.20
2022-10-05T02:28:21.965Z,11.20
2022-10-05T02:31:04.457Z,11.20
2022-10-05T02:33:34.807Z,11.20
2022-10-05T02:36:13.096Z,11.20
2022-10-05T02:39:02.585Z,11.20
2022-10-05T02:42:08.592Z,11.10
2022-10-05T02:45:46.646Z,11.20
2022-10-05T02:48:42.534Z,11.10
2022-10-05T02:51:16.659Z,11.10
2022-10-05T02:54:02.346Z,11.10
2022-10-05T02:57:16.672Z,11.10
2022-10-05T02:59:58.004Z,11.10
2022-10-05T03:02:58.704Z,11.10
2022-10-05T03:05:43.749Z,11.10
2022-10-05T03:08:16.606Z,11.00
2022-10-05T03:11:04.802Z,11.00
2022-10-05T03:13:47.693Z,10.90
2022-10-05T03:16:47.871Z,10.90
2022-10-05T03:19:41.710Z,10.90
2022-10-05T03:22:33.758Z,10.80
2022-10-05T03:25:40.101Z,10.80
2022-10-05T03:28:42.338Z,10.90
2022-10-05T03:32:14.056Z,10.80
2022-10-05T03:35:02.477Z,10.80
2022-10-05T03:38:30.856Z,10.80
2022-10-05T03:41:23.996Z,10.90
2022-10-05T03:44:33.698Z,10.90
2022-10-05T03:47:39.492Z,10.90
2022-10-05T03:50:43.053Z,10.90
2022-10-05T03:53:44.000Z,10.90
2022-10-05T03:56:26.884Z,10.90
2022-10-05T03:59:33.710Z,10.90
2022-10-05T04:02:19.981Z,10.90
2022-10-05T04:04:57.230Z,11.00
2022-10-05T04:07:56.808Z,10.90
2022-10-05T04:10:34.026Z,11.00
2022-10-05T04:13:18.650Z,10.90
2022-10-05T04:16:29.758Z,10.90
2022-10-05T04:19:19.282Z,10.90
2022-10-05T04:22:10.422Z,10.90
2022-10-05T04:24:46.212Z,10.90
2022-10-05T04:27:30.590Z,10.90
2022-10-05T04:30:13.239Z,10.90
2022-10-05T04:32:55.619Z,10.90
2022-10-05T04:35:41.140Z,10.90
2022-10-05T04:39:00.819Z,10.90
2022-10-05T04:42:09.566Z,10.90
2022-10-05T04:45:19.879Z,10.90
2022-10-05T04:48:19.954Z,10.80
2022-10-05T04:51:25.588Z,10.80
2022-10-05T04:54:30.404Z,10.80
2022-10-05T04:57:11.054Z,10.80
2022-10-05T05:00:05.842Z,10.80
2022-10-05T05:02:38.358Z,10.80
2022-10-05T05:05:33.976Z,10.80
2022-10-05T05:08:31.516Z,10.80
2022-10-05T05:11:25.876Z,10.80
2022-10-05T05:14:34.242Z,10.80
2022-10-05T05:17:19.074Z,10.90
2022-10-05T05:20:25.939Z,10.90
2022-10-05T05:23:51.892Z,11.00
2022-10-05T05:27:02.167Z,11.00
2022-10-05T05:30:16.664Z,11.00
2022-10-05T05:33:35.855Z,11.10
2022-10-05T05:36:46.825Z,11.10
2022-10-05T05:40:10.049Z,11.20
2022-10-05T05:43:19.807Z,11.20
2022-10-05T05:46:09.480Z,11.20
2022-10-05T05:48:49.106Z,11.20
2022-10-05T05:51:45.385Z,11.20
2022-10-05T05:54:23.665Z,11.30
2022-10-05T05:57:35.906Z,11.30
2022-10-05T06:00:06.119Z,11.30
2022-10-05T06:02:59.415Z,11.40
2022-10-05T06:05:45.012Z,11.50
2022-10-05T06:08:43.270Z,11.50
2022-10-05T06:11:17.680Z,11.50
2022-10-05T06:13:46.354Z,11.60
2022-10-05T06:16:55.735Z,11.70
2022-10-05T06:19:25.764Z,11.60
2022-10-05T06:22:13.362Z,11.70
2022-10-05T06:25:11.828Z,11.70
2022-10-05T06:28:10.826Z,11.70
2022-10-05T06:30:54.327Z,11.80
2022-10-05T06:33:50.673Z,11.80
2022-10-05T06:36:29.741Z,11.80
2022-10-05T06:39:29.177Z,11.80
2022-10-05T06:42:39.429Z,11.80
2022-10-05T06:45:48.634Z,11.70
2022-10-05T06:48:24.371Z,11.80
2022-10-05T06:51:28.556Z,11.90
2022-10-05T06:54:05.608Z,12.00
2022-10-05T06:57:10.500Z,12.00
2022-10-05T07:00:09.562Z,12.10
2022-10-05T07:02:45.099Z,12.20
2022-10-05T07:05:39.020Z,12.30
2022-10-05T07:08:12.222Z,12.40
2022-10-05T07:11:17.204Z,12.50
2022-10-05T07:14:05.464Z,12.60
2022-10-05T07:16:52.677Z,12.50
2022-10-05T07:20:01.067Z,12.60
2022-10-05T07:23:02.165Z,12.70
2022-10-05T07:25:50.424Z,12.70
2022-10-05T07:28:47.959Z,12.70
2022-10-05T07:31:33.566Z,12.80
2022-10-05T07:34:15.781Z,12.90
2022-10-05T07:37:21.910Z,12.90
2022-10-05T07:40:15.207Z,12.90
2022-10-05T07:43:00.894Z,12.90
2022-10-05T07:46:03.105Z,12.90
2022-10-05T07:49:05.602Z,12.80
2022-10-05T07:51:50.346Z,12.80
2022-10-05T07:54:37.918Z,12.80
2022-10-05T07:57:07.794Z,12.90
2022-10-05T08:00:03.954Z,12.90
2022-10-05T08:02:44.429Z,13.00
2022-10-05T08:05:28.420Z,13.10
2022-10-05T08:08:35.992Z,13.20
2022-10-05T08:11:15.581Z,13.20
2022-10-05T08:13:55.866Z,13.30
2022-10-05T08:16:28.284Z,13.30
2022-10-05T08:19:06.100Z,13.40
2022-10-05T08:21:48.060Z,13.40
2022-10-05T08:24:51.773Z,13.50
2022-10-05T08:27:49.584Z,13.50
2022-10-05T08:30:17.522Z,13.70
2022-10-05T08:32:55.704Z,13.80
2022-10-05T08:35:55.720Z,13.80
2022-10-05T08:38:33.369Z,13.80
2022-10-05T08:41:38.074Z,13.90
2022-10-05T08:44:37.689Z,13.90
2022-10-05T08:47:10.197Z,13.90
2022-10-05T08:50:00.948Z,13.90
2022-10-05T08:52:39.232Z,13.90
2022-10-05T08:55:33.740Z,14.00
2022-10-05T08:58:30.603Z,14.00
2022-10-05T09:01:15.404Z,14.10
2022-10-05T09:04:38.774Z,14.20
2022-10-05T09:07:27.216Z,14.30
2022-10-05T09:10:25.069Z,14.40
2022-10-05T09:13:24.892Z,14.30
2022-10-05T09:16:22.496Z,14.40
2022-10-05T09:19:44.523Z,14.40
2022-10-05T09:22:35.242Z,14.50
2022-10-05T09:25:25.442Z,14.50
2022-10-05T09:27:58.823Z,14.50
2022-10-05T09:30:47.850Z,14.60
2022-10-05T09:33:30.050Z,14.70
2022-10-05T09:36:35.509Z,14.70
2022-10-05T09:39:40.894Z,14.80
2022-10-05T09:42:41.722Z,14.80
2022-10-05T09:45:57.917Z,14.80
2022-10-05T09:49:15.265Z,14.90
2022-10-05T09:52:17.934Z,15.00
2022-10-05T09:55:10.987Z,15.00
2022-10-05T09:58:16.099Z,15.00
2022-10-05T10:01:15.942Z,15.00
2022-10-05T10:04:48.284Z,15.20
2022-10-05T10:07:46.368Z,15.10
2022-10-05T10:10:16.056Z,15.20
2022-10-05T10:13:20.571Z,15.20
2022-10-05T10:16:15.836Z,15.30
2022-10-05T10:19:06.526Z,15.40
2022-10-05T10:22:53.323Z,15.50
2022-10-05T10:25:55.830Z,15.70
2022-10-05T10:28:46.872Z,15.80
2022-10-05T10:32:11.605Z,15.80
2022-10-05T10:35:19.401Z,15.90
2022-10-05T10:38:15.922Z,15.90
2022-10-05T10:41:16.777Z,15.90
2022-10-05T10:44:11.093Z,16.00
2022-10-05T10:46:50.353Z,16.10
2022-10-05T10:49:36.218Z,16.10
2022-10-05T10:52:38.921Z,16.10
2022-10-05T10:55:51.871Z,16.20
2022-10-05T10:58:43.851Z,16.40
2022-10-05T11:01:34.272Z,16.50
2022-10-05T11:04:13.212Z,16.60
2022-10-05T11:06:42.982Z,16.70
2022-10-05T11:09:50.712Z,16.60
2022-10-05T11:12:54.441Z,16.60
2022-10-05T11:15:50.460Z,16.50
2022-10-05T11:18:46.787Z,16.50
2022-10-05T11:21:48.430Z,16.50
2022-10-05T11:24:38.693Z,16.70
2022-10-05T11:27:30.209Z,16.90
2022-10-05T11:30:27.984Z,16.90
2022-10-05T11:32:57.715Z,17.00
2022-10-05T11:35:49.272Z,17.00
2022-10-05T11:38:53.161Z,17.00
2022-10-05T11:41:41.816Z,17.10
2022-10-05T11:44:39.493Z,17.00
2022-10-05T11:47:58.741Z,17.10
2022-10-05T11:51:18.695Z,17.20
2022-10-05T11:54:18.667Z,17.20
2022-10-05T11:57:07.853Z,17.30
2022-10-05T12:00:07.154Z,17.40
2022-10-05T12:02:55.679Z,17.30
2022-10-05T12:17:38.027Z,17.30
2022-10-05T12:20:33.462Z,17.90
2022-10-05T12:23:34.662Z,17.60
2022-10-05T12:26:11.736Z,17.50
2022-10-05T12:28:47.592Z,17.50
2022-10-05T12:31:30.093Z,17.40
2022-10-05T12:34:13.426Z,17.30
2022-10-05T12:37:17.084Z,17.20
2022-10-05T12:40:02.638Z,17.20
2022-10-05T12:42:50.320Z,17.10
2022-10-05T12:45:38.408Z,17.10
2022-10-05T12:48:34.184Z,17.20
2022-10-05T12:51:22.148Z,17.20
2022-10-05T12:54:06.457Z,17.20
2022-10-05T12:57:08.727Z,17.20
2022-10-05T12:59:35.588Z,17.20
2022-10-05T13:02:13.964Z,17.10
2022-10-05T13:05:10.270Z,17.10
2022-10-05T13:08:09.329Z,17.10
2022-10-05T13:10:44.766Z,17.10
2022-10-05T13:13:45.109Z,17.20
2022-10-05T13:16:15.494Z,17.20
2022-10-05T13:19:04.339Z,17.20
2022-10-05T13:21:46.241Z,17.30
2022-10-05T13:24:26.596Z,17.20
2022-10-05T13:27:14.150Z,17.10
2022-10-05T13:29:55.808Z,17.00
2022-10-05T13:32:29.575Z,17.10
2022-10-05T13:35:29.764Z,17.10
2022-10-05T13:38:44.358Z,17.10
2022-10-05T13:41:39.257Z,17.10
2022-10-05T13:44:37.939Z,17.20
2022-10-05T13:47:22.789Z,17.10
2022-10-05T13:50:07.178Z,17.00
2022-10-05T13:53:00.174Z,16.90
2022-10-05T13:56:03.872Z,16.90
2022-10-05T13:58:46.171Z,17.00
2022-10-05T14:01:46.681Z,16.90
2022-10-05T14:04:22.189Z,17.00
2022-10-05T14:06:49.632Z,17.00
2022-10-05T14:09:22.291Z,17.00
2022-10-05T14:12:14.599Z,17.00
2022-10-05T14:14:52.404Z,17.10
2022-10-05T14:17:42.540Z,17.10
2022-10-05T14:20:28.317Z,17.10
2022-10-05T14:23:05.281Z,17.10
2022-10-05T14:25:53.654Z,17.00
2022-10-05T14:28:30.569Z,17.00
2022-10-05T14:31:00.179Z,17.10
2022-10-05T14:33:33.728Z,17.10
2022-10-05T14:36:01.149Z,17.10
2022-10-05T14:38:52.564Z,17.10
2022-10-05T14:41:27.703Z,17.10
2022-10-05T14:44:16.236Z,17.10
2022-10-05T14:47:02.685Z,17.20
2022-10-05T14:49:37.294Z,17.10
2022-10-05T14:52:34.159Z,17.10
2022-10-05T14:55:44.894Z,17.10
2022-10-05T14:58:14.832Z,17.00
2022-10-05T15:01:16.649Z,17.00
2022-10-05T15:03:57.291Z,17.00
2022-10-05T15:07:28.013Z,16.90
2022-10-05T15:10:27.006Z,16.90
2022-10-05T15:13:09.210Z,16.90
2022-10-05T15:15:59.544Z,16.90
2022-10-05T15:19:06.264Z,16.90
2022-10-05T15:22:29.363Z,16.90
2022-10-05T15:25:15.350Z,16.90
2022-10-05T15:28:19.494Z,16.80
2022-10-05T15:31:23.611Z,16.70
2022-10-05T15:34:05.167Z,16.70
2022-10-05T15:36:43.026Z,16.70
2022-10-05T15:39:28.484Z,16.70
2022-10-05T15:42:02.337Z,16.70
2022-10-05T15:45:06.966Z,16.70
2022-10-05T15:48:39.367Z,16.80
2022-10-05T15:51:30.716Z,16.70
2022-10-05T15:54:32.781Z,16.60
2022-10-05T15:57:36.697Z,16.60
2022-10-05T16:00:16.689Z,16.50
2022-10-05T16:03:14.156Z,16.50
2022-10-05T16:06:08.694Z,16.50
2022-10-05T16:09:07.509Z,16.60
2022-10-05T16:12:14.288Z,16.60
2022-10-05T16:15:06.506Z,16.50
2022-10-05T16:17:42.656Z,16.50
2022-10-05T16:20:48.178Z,16.40
2022-10-05T16:23:41.722Z,16.40
2022-10-05T16:26:39.613Z,16.30
2022-10-05T16:29:17.505Z,16.10
2022-10-05T16:32:00.202Z,16.10
2022-10-05T16:34:56.349Z,15.90
2022-10-05T16:37:50.074Z,15.90
2022-10-05T16:40:36.020Z,15.90
2022-10-05T16:43:22.294Z,15.90
2022-10-05T16:46:03.306Z,15.90
2022-10-05T16:49:15.879Z,15.90
2022-10-05T16:52:01.407Z,15.90
2022-10-05T16:54:28.247Z,15.80
2022-10-05T16:57:19.097Z,15.70
2022-10-05T17:00:15.988Z,15.70
2022-10-05T17:03:04.912Z,15.70
2022-10-05T17:06:17.022Z,15.60
2022-10-05T17:09:23.247Z,15.60
2022-10-05T17:12:08.414Z,15.60
2022-10-05T17:15:13.556Z,15.60
2022-10-05T17:18:09.178Z,15.50
2022-10-05T17:20:42.575Z,15.50
2022-10-05T17:23:33.840Z,15.50
2022-10-05T17:26:38.588Z,15.40
2022-10-05T17:29:15.403Z,15.50
2022-10-05T17:32:11.234Z,15.40
2022-10-05T17:35:02.848Z,15.40
2022-10-05T17:38:09.168Z,15.30
2022-10-05T17:40:39.145Z,15.30
2022-10-05T17:43:15.444Z,15.20
2022-10-05T17:45:42.311Z,15.20
2022-10-05T17:48:11.760Z,15.10
2022-10-05T17:51:06.500Z,15.10
2022-10-05T17:54:03.820Z,15.10
2022-10-05T17:56:53.322Z,15.00
2022-10-05T17:59:58.664Z,14.90
2022-10-05T18:02:40.409Z,14.90
2022-10-05T18:05:14.526Z,14.90
2022-10-05T18:07:48.215Z,14.90
2022-10-05T18:10:32.548Z,14.90
2022-10-05T18:12:59.394Z,14.80
2022-10-05T18:15:26.365Z,14.80
2022-10-05T18:17:57.484Z,14.70
2022-10-05T18:20:25.533Z,14.70
2022-10-05T18:23:01.615Z,14.70
2022-10-05T18:25:49.611Z,14.70
2022-10-05T18:28:39.245Z,14.70
2022-10-05T18:31:30.545Z,14.70
2022-10-05T18:34:09.088Z,14.70
2022-10-05T18:36:45.344Z,14.60
2022-10-05T18:40:05.791Z,14.60
2022-10-05T18:43:14.689Z,14.60
2022-10-05T18:46:15.248Z,14.60
2022-10-05T18:49:18.874Z,14.50
2022-10-05T18:52:21.268Z,14.40
2022-10-05T19:07:41.157Z,14.10
2022-10-05T19:10:25.806Z,14.60
2022-10-05T19:13:23.841Z,14.40
2022-10-05T19:16:18.883Z,14.20
2022-10-05T19:19:43.792Z,14.00
2022-10-05T19:22:32.265Z,13.90
2022-10-05T19:25:16.703Z,13.70
2022-10-05T19:28:13.712Z,13.70
2022-10-05T19:31:17.876Z,13.60
2022-10-05T19:34:23.694Z,13.60
2022-10-05T19:37:14.119Z,13.60
2022-10-05T19:39:55.535Z,13.60
2022-10-05T19:42:53.106Z,13.60
2022-10-05T19:45:27.195Z,13.50
2022-10-05T19:48:30.536Z,13.60
2022-10-05T19:51:03.486Z,13.60
2022-10-05T19:53:37.139Z,13.60
2022-10-05T19:56:35.348Z,13.60
2022-10-05T19:59:20.278Z,13.50
2022-10-05T20:01:53.779Z,13.50
2022-10-05T20:04:36.550Z,13.40
2022-10-05T20:07:04.107Z,13.40
2022-10-05T20:10:00.664Z,13.30
2022-10-05T20:12:51.460Z,13.30
2022-10-05T20:15:46.068Z,13.30
2022-10-05T20:19:06.733Z,13.30
2022-10-05T20:21:47.430Z,13.30
2022-10-05T20:24:17.935Z,13.20
2022-10-05T20:27:05.175Z,13.30
2022-10-05T20:29:43.928Z,13.30
2022-10-05T20:32:18.068Z,13.20
2022-10-05T20:34:49.352Z,13.20
2022-10-05T20:37:18.929Z,13.20
2022-10-05T20:39:48.065Z,13.20
2022-10-05T20:42:15.176Z,13.10
2022-10-05T20:44:44.525Z,13.10
2022-10-05T20:47:12.452Z,13.10
2022-10-05T20:49:44.788Z,13.00
2022-10-05T20:52:15.013Z,13.10
2022-10-05T20:54:42.316Z,13.10
2022-10-05T20:57:09.931Z,13.00
2022-10-05T20:59:37.459Z,13.00
2022-10-05T21:02:05.701Z,13.10
2022-10-05T21:04:40.841Z,13.00
2022-10-05T21:07:08.915Z,13.00
2022-10-05T21:09:38.390Z,13.00
2022-10-05T21:12:05.702Z,13.00
2022-10-05T21:14:34.399Z,13.00
2022-10-05T21:17:02.103Z,13.00
2022-10-05T21:19:29.780Z,13.00
2022-10-05T21:22:02.512Z,13.00
2022-10-05T21:24:29.699Z,13.00
2022-10-05T21:26:57.565Z,12.90
2022-10-05T21:29:24.776Z,13.00
2022-10-05T21:31:52.063Z,13.00
2022-10-05T21:34:19.205Z,12.90
2022-10-05T21:36:46.214Z,12.90
2022-10-05T21:39:13.172Z,12.90
2022-10-05T21:41:40.164Z,12.90
2022-10-05T21:44:07.102Z,12.90
2022-10-05T21:46:38.078Z,12.90
2022-10-05T21:49:08.008Z,12.90
2022-10-05T21:51:36.546Z,12.90
2022-10-05T21:54:11.533Z,12.80
2022-10-05T21:56:46.298Z,12.80
2022-10-05T21:59:19.231Z,12.80
2022-10-05T22:01:46.195Z,12.80
2022-10-05T22:04:14.966Z,12.70
2022-10-05T22:06:41.971Z,12.70
2022-10-05T22:09:09.275Z,12.70
2022-10-05T22:11:36.467Z,12.70
2022-10-05T22:14:03.826Z,12.70
2022-10-05T22:16:36.597Z,12.70
2022-10-05T22:19:10.759Z,12.60
2022-10-05T22:21:41.554Z,12.70
2022-10-05T22:24:11.499Z,12.60
2022-10-05T22:26:41.892Z,12.60
2022-10-05T22:29:09.699Z,12.60
2022-10-05T22:31:37.671Z,12.60
2022-10-05T22:34:04.951Z,12.60
2022-10-05T22:36:35.502Z,12.60
2022-10-05T22:39:02.700Z,12.50
2022-10-05T22:41:29.612Z,12.50
2022-10-05T22:43:56.503Z,12.40
2022-10-05T22:46:23.482Z,12.40
2022-10-05T22:48:50.462Z,12.40
2022-10-05T22:51:17.495Z,12.40
2022-10-05T22:53:44.406Z,12.40
2022-10-05T22:56:14.021Z,12.40
2022-10-05T22:58:42.603Z,12.40
2022-10-05T23:01:16.395Z,12.40
2022-10-05T23:03:44.340Z,12.40
2022-10-05T23:06:18.174Z,12.40
2022-10-05T23:08:46.748Z,12.40
2022-10-05T23:11:17.504Z,12.40
2022-10-05T23:13:45.094Z,12.40
2022-10-05T23:16:18.193Z,12.40
2022-10-05T23:18:49.061Z,12.40
2022-10-05T23:21:17.166Z,12.40
2022-10-05T23:23:48.999Z,12.40
2022-10-05T23:26:18.708Z,12.40
2022-10-05T23:28:49.209Z,12.40
2022-10-05T23:31:21.013Z,12.40
2022-10-05T23:33:48.469Z,12.40
2022-10-05T23:36:21.926Z,12.40
2022-10-05T23:38:49.431Z,12.50
2022-10-05T23:41:17.561Z,12.50
2022-10-05T23:43:44.582Z,12.50
2022-10-05T23:46:13.407Z,12.50
2022-10-05T23:48:40.696Z,12.50
2022-10-05T23:51:11.008Z,12.50
2022-10-05T23:53:38.217Z,12.50
2022-10-05T23:56:05.795Z,12.40
2022-10-05T23:58:32.938Z,12.40
